Pisces Leader — HPCT — position and weather

sailwx.info

Track history (hours):
 
Tides and Currents Weather Stations Pressure Air Temp Water Temp Dewpoint Dewpoint Depression Visibility Wind Speed Wind Dir Waves Ship Positions

Pisces Leader

Last reported at 2017-Dec-17 06:28 UTC. Time now 2017-Dec-17 06:33 UTC.
Position N 01°16' E 104°08'.

Length 199 m; draft 9.2 m.

Type: Cargo ship. MMSI: 353987000.

Date/timePositionNaut miles runAvg speedWind from/ knotsBaromVisibWave heightAir tempDewpointWater temp
2017-Dec-17 06:28N 01°16' E 104°08'  
2017-Dec-10 12:14N 21°49' E 119°31'417.4
2017-Dec-10 12:00N 21°53' E 119°33'917.3
2017-Dec-10 11:30N 22°00' E 119°38'2917.8
2017-Dec-10 09:51N 22°29' E 119°44'818.3
2017-Dec-10 09:26N 22°37' E 119°45'818.4
2017-Dec-10 09:00N 22°45' E 119°46'918.7
2017-Dec-10 08:30N 22°54' E 119°48'918.3
2017-Dec-10 08:01N 23°03' E 119°50'917.5
2017-Dec-10 07:30N 23°11' E 119°52'917.0
2017-Dec-10 06:59N 23°20' E 119°54'816.0
2017-Dec-10 06:30N 23°28' E 119°55'816.0
2017-Dec-10 05:59N 23°36' E 119°57'9516.8
2017-Dec-10 00:20N 24°57' E 120°51'817.3
2017-Dec-09 23:54N 25°02' E 120°56'816.5
2017-Dec-09 23:24N 25°08' E 121°03'615.9
2017-Dec-09 23:00N 25°13' E 121°08'714.6
2017-Dec-09 22:30N 25°16' E 121°15'713.7
2017-Dec-09 22:00N 25°11' E 121°20'3 5.5
2017-Dec-09 21:30N 25°10' E 121°23'1 1.1
2017-Dec-09 20:55N 25°10' E 121°24'0 0.0
2017-Dec-09 20:28N 25°10' E 121°24'0 0.0
2017-Dec-09 19:55N 25°10' E 121°24'0 0.0
2017-Dec-09 19:19N 25°10' E 121°24'0 0.0
2017-Dec-09 18:58N 25°10' E 121°24'0 0.0
2017-Dec-09 18:28N 25°10' E 121°24'0 0.0
2017-Dec-09 17:58N 25°10' E 121°24'0 0.0
2017-Dec-09 17:25N 25°10' E 121°24'0 0.0
2017-Dec-09 16:58N 25°10' E 121°24'1 2.2
2017-Dec-09 16:31N 25°09' E 121°23'4 8.6
2017-Dec-09 16:00N 25°11' E 121°18'2 5.0
2017-Dec-09 15:30N 25°13' E 121°16'4 7.3
2017-Dec-09 15:00N 25°16' E 121°14'3 5.0
2017-Dec-09 14:30N 25°18' E 121°13'612.9
2017-Dec-09 14:00N 25°22' E 121°19'816.5
2017-Dec-09 13:30N 25°26' E 121°27'815.8
2017-Dec-09 13:01N 25°28' E 121°35'917.4
2017-Dec-09 12:31N 25°26' E 121°45'917.9
2017-Dec-09 12:00N 25°24' E 121°54'918.6
2017-Dec-09 11:30N 25°25' E 122°05'918.7
2017-Dec-09 11:00N 25°27' E 122°15'83116.3
2017-Dec-07 07:59N 33°51' E 134°55'918.8
2017-Dec-07 07:30N 34°00' E 134°55'917.2
2017-Dec-07 07:01N 34°09' E 134°56'612.1
2017-Dec-07 06:31N 34°15' E 134°58'  
Track history (hours):
 
Tides and Currents Weather Stations Pressure Air Temp Water Temp Dewpoint Dewpoint Depression Visibility Wind Speed Wind Dir Waves Ship Positions

Pisces Leader

Last reported at 2017-Dec-17 06:28 UTC. Time now 2017-Dec-17 06:33 UTC.
Position N 01°16' E 104°08'.

Length 199 m; draft 9.2 m.

Type: Cargo ship. MMSI: 353987000.

Date/timePositionNaut miles runAvg speedWind from/ knotsBaromVisibWave heightAir tempDewpointWater temp
2017-Dec-17 06:28N 01°16' E 104°08'  
2017-Dec-10 12:14N 21°49' E 119°31'417.4
2017-Dec-10 12:00N 21°53' E 119°33'917.3
2017-Dec-10 11:30N 22°00' E 119°38'2917.8
2017-Dec-10 09:51N 22°29' E 119°44'818.3
2017-Dec-10 09:26N 22°37' E 119°45'818.4
2017-Dec-10 09:00N 22°45' E 119°46'918.7
2017-Dec-10 08:30N 22°54' E 119°48'918.3
2017-Dec-10 08:01N 23°03' E 119°50'917.5
2017-Dec-10 07:30N 23°11' E 119°52'917.0
2017-Dec-10 06:59N 23°20' E 119°54'816.0
2017-Dec-10 06:30N 23°28' E 119°55'816.0
2017-Dec-10 05:59N 23°36' E 119°57'9516.8
2017-Dec-10 00:20N 24°57' E 120°51'817.3
2017-Dec-09 23:54N 25°02' E 120°56'816.5
2017-Dec-09 23:24N 25°08' E 121°03'615.9
2017-Dec-09 23:00N 25°13' E 121°08'714.6
2017-Dec-09 22:30N 25°16' E 121°15'713.7
2017-Dec-09 22:00N 25°11' E 121°20'3 5.5
2017-Dec-09 21:30N 25°10' E 121°23'1 1.1
2017-Dec-09 20:55N 25°10' E 121°24'0 0.0
2017-Dec-09 20:28N 25°10' E 121°24'0 0.0
2017-Dec-09 19:55N 25°10' E 121°24'0 0.0
2017-Dec-09 19:19N 25°10' E 121°24'0 0.0
2017-Dec-09 18:58N 25°10' E 121°24'0 0.0
2017-Dec-09 18:28N 25°10' E 121°24'0 0.0
2017-Dec-09 17:58N 25°10' E 121°24'0 0.0
2017-Dec-09 17:25N 25°10' E 121°24'0 0.0
2017-Dec-09 16:58N 25°10' E 121°24'1 2.2
2017-Dec-09 16:31N 25°09' E 121°23'4 8.6
2017-Dec-09 16:00N 25°11' E 121°18'2 5.0
2017-Dec-09 15:30N 25°13' E 121°16'4 7.3
2017-Dec-09 15:00N 25°16' E 121°14'3 5.0
2017-Dec-09 14:30N 25°18' E 121°13'612.9
2017-Dec-09 14:00N 25°22' E 121°19'816.5
2017-Dec-09 13:30N 25°26' E 121°27'815.8
2017-Dec-09 13:01N 25°28' E 121°35'917.4
2017-Dec-09 12:31N 25°26' E 121°45'917.9
2017-Dec-09 12:00N 25°24' E 121°54'918.6
2017-Dec-09 11:30N 25°25' E 122°05'918.7
2017-Dec-09 11:00N 25°27' E 122°15'83116.3
2017-Dec-07 07:59N 33°51' E 134°55'918.8
2017-Dec-07 07:30N 34°00' E 134°55'917.2
2017-Dec-07 07:01N 34°09' E 134°56'612.1
2017-Dec-07 06:31N 34°15' E 134°58'  

Dump ship's entire track history